sensor_id;sensor_type;location;lat;lon;timestamp;P1;durP1;ratioP1;P2;durP2;ratioP2
57327;SDS011;43162;51.040;18.244;2022-12-26T00:01:53;24.90;;;13.60;;
57327;SDS011;43162;51.040;18.244;2022-12-26T00:04:19;28.00;;;13.30;;
57327;SDS011;43162;51.040;18.244;2022-12-26T00:06:45;22.50;;;11.90;;
57327;SDS011;43162;51.040;18.244;2022-12-26T00:09:11;30.40;;;13.30;;
57327;SDS011;43162;51.040;18.244;2022-12-26T00:11:37;23.30;;;12.30;;
57327;SDS011;43162;51.040;18.244;2022-12-26T00:14:04;24.60;;;12.50;;
57327;SDS011;43162;51.040;18.244;2022-12-26T00:16:32;24.30;;;13.40;;
57327;SDS011;43162;51.040;18.244;2022-12-26T00:18:59;24.90;;;12.80;;
57327;SDS011;43162;51.040;18.244;2022-12-26T00:21:25;21.40;;;12.00;;
57327;SDS011;43162;51.040;18.244;2022-12-26T00:23:54;25.40;;;12.90;;
57327;SDS011;43162;51.040;18.244;2022-12-26T00:26:21;29.30;;;13.60;;
57327;SDS011;43162;51.040;18.244;2022-12-26T00:28:49;18.40;;;11.30;;
57327;SDS011;43162;51.040;18.244;2022-12-26T00:31:16;25.00;;;11.60;;
57327;SDS011;43162;51.040;18.244;2022-12-26T00:33:44;22.90;;;11.90;;
57327;SDS011;43162;51.040;18.244;2022-12-26T00:36:11;22.00;;;12.00;;
57327;SDS011;43162;51.040;18.244;2022-12-26T00:38:39;30.10;;;12.00;;
57327;SDS011;43162;51.040;18.244;2022-12-26T00:41:05;19.70;;;11.50;;
57327;SDS011;43162;51.040;18.244;2022-12-26T00:43:31;20.60;;;11.00;;
57327;SDS011;43162;51.040;18.244;2022-12-26T00:45:57;23.10;;;11.20;;
57327;SDS011;43162;51.040;18.244;2022-12-26T00:48:25;24.50;;;11.20;;
57327;SDS011;43162;51.040;18.244;2022-12-26T00:50:51;20.20;;;11.00;;
57327;SDS011;43162;51.040;18.244;2022-12-26T00:53:16;23.30;;;11.70;;
57327;SDS011;43162;51.040;18.244;2022-12-26T00:55:42;29.30;;;12.90;;
57327;SDS011;43162;51.040;18.244;2022-12-26T00:58:08;17.10;;;10.20;;
57327;SDS011;43162;51.040;18.244;2022-12-26T01:00:34;18.20;;;11.00;;
57327;SDS011;43162;51.040;18.244;2022-12-26T01:03:01;19.30;;;11.20;;
57327;SDS011;43162;51.040;18.244;2022-12-26T01:05:26;19.50;;;10.50;;
57327;SDS011;43162;51.040;18.244;2022-12-26T01:07:53;19.20;;;10.30;;
57327;SDS011;43162;51.040;18.244;2022-12-26T01:10:18;19.10;;;9.80;;
57327;SDS011;43162;51.040;18.244;2022-12-26T01:12:44;21.60;;;11.90;;
57327;SDS011;43162;51.040;18.244;2022-12-26T01:15:10;20.90;;;11.30;;
57327;SDS011;43162;51.040;18.244;2022-12-26T01:17:35;19.10;;;11.10;;
57327;SDS011;43162;51.040;18.244;2022-12-26T01:20:01;18.30;;;10.80;;
57327;SDS011;43162;51.040;18.244;2022-12-26T01:22:28;16.40;;;9.90;;
57327;SDS011;43162;51.040;18.244;2022-12-26T01:24:55;27.50;;;11.90;;
57327;SDS011;43162;51.040;18.244;2022-12-26T01:27:21;22.30;;;11.40;;
57327;SDS011;43162;51.040;18.244;2022-12-26T01:29:48;25.00;;;11.70;;
57327;SDS011;43162;51.040;18.244;2022-12-26T01:32:13;16.50;;;9.80;;
57327;SDS011;43162;51.040;18.244;2022-12-26T01:34:40;25.30;;;13.10;;
57327;SDS011;43162;51.040;18.244;2022-12-26T01:37:06;23.50;;;11.20;;
57327;SDS011;43162;51.040;18.244;2022-12-26T01:39:31;17.30;;;9.10;;
57327;SDS011;43162;51.040;18.244;2022-12-26T01:41:57;22.10;;;12.10;;
57327;SDS011;43162;51.040;18.244;2022-12-26T01:47:22;24.30;;;11.60;;
57327;SDS011;43162;51.040;18.244;2022-12-26T01:49:54;24.50;;;10.70;;
57327;SDS011;43162;51.040;18.244;2022-12-26T01:52:22;20.70;;;11.50;;
57327;SDS011;43162;51.040;18.244;2022-12-26T01:54:55;22.50;;;11.60;;
57327;SDS011;43162;51.040;18.244;2022-12-26T01:57:23;22.30;;;10.90;;
57327;SDS011;43162;51.040;18.244;2022-12-26T01:59:54;20.40;;;9.90;;
57327;SDS011;43162;51.040;18.244;2022-12-26T02:02:21;16.90;;;9.30;;
57327;SDS011;43162;51.040;18.244;2022-12-26T02:04:48;17.30;;;9.10;;
57327;SDS011;43162;51.040;18.244;2022-12-26T02:07:34;18.90;;;9.70;;
57327;SDS011;43162;51.040;18.244;2022-12-26T02:10:00;21.30;;;10.10;;
57327;SDS011;43162;51.040;18.244;2022-12-26T02:12:31;20.10;;;9.50;;
57327;SDS011;43162;51.040;18.244;2022-12-26T02:14:58;18.20;;;10.20;;
57327;SDS011;43162;51.040;18.244;2022-12-26T02:17:24;20.10;;;9.80;;
57327;SDS011;43162;51.040;18.244;2022-12-26T02:33:02;16.70;;;9.00;;
57327;SDS011;43162;51.040;18.244;2022-12-26T02:35:32;22.80;;;8.80;;
57327;SDS011;43162;51.040;18.244;2022-12-26T02:44:07;17.60;;;8.60;;
57327;SDS011;43162;51.040;18.244;2022-12-26T02:47:05;16.40;;;9.20;;
57327;SDS011;43162;51.040;18.244;2022-12-26T02:50:02;15.70;;;7.90;;
57327;SDS011;43162;51.040;18.244;2022-12-26T02:56:04;16.50;;;9.50;;
57327;SDS011;43162;51.040;18.244;2022-12-26T02:59:01;13.20;;;9.20;;
57327;SDS011;43162;51.040;18.244;2022-12-26T03:01:49;21.90;;;9.60;;
57327;SDS011;43162;51.040;18.244;2022-12-26T03:04:36;16.30;;;9.50;;
57327;SDS011;43162;51.040;18.244;2022-12-26T03:07:23;15.70;;;8.50;;
57327;SDS011;43162;51.040;18.244;2022-12-26T03:10:15;17.20;;;9.40;;
57327;SDS011;43162;51.040;18.244;2022-12-26T03:13:05;18.80;;;8.90;;
57327;SDS011;43162;51.040;18.244;2022-12-26T03:18:30;19.80;;;11.10;;
57327;SDS011;43162;51.040;18.244;2022-12-26T03:20:56;22.70;;;11.10;;
57327;SDS011;43162;51.040;18.244;2022-12-26T03:23:23;16.90;;;10.20;;
57327;SDS011;43162;51.040;18.244;2022-12-26T03:25:50;16.80;;;10.30;;
57327;SDS011;43162;51.040;18.244;2022-12-26T03:28:37;20.00;;;9.50;;
57327;SDS011;43162;51.040;18.244;2022-12-26T03:31:04;16.30;;;9.60;;
57327;SDS011;43162;51.040;18.244;2022-12-26T03:33:44;15.90;;;9.10;;
57327;SDS011;43162;51.040;18.244;2022-12-26T03:42:54;20.80;;;9.70;;
57327;SDS011;43162;51.040;18.244;2022-12-26T03:49:08;15.70;;;8.80;;
57327;SDS011;43162;51.040;18.244;2022-12-26T03:55:16;11.30;;;7.30;;
57327;SDS011;43162;51.040;18.244;2022-12-26T03:58:18;17.00;;;8.70;;
57327;SDS011;43162;51.040;18.244;2022-12-26T04:01:09;17.40;;;9.10;;
57327;SDS011;43162;51.040;18.244;2022-12-26T04:03:57;16.60;;;8.50;;
57327;SDS011;43162;51.040;18.244;2022-12-26T04:09:53;21.30;;;9.80;;
57327;SDS011;43162;51.040;18.244;2022-12-26T04:12:42;16.70;;;9.70;;
57327;SDS011;43162;51.040;18.244;2022-12-26T04:15:48;19.10;;;9.40;;
57327;SDS011;43162;51.040;18.244;2022-12-26T04:18:47;15.30;;;8.90;;
57327;SDS011;43162;51.040;18.244;2022-12-26T04:21:47;16.90;;;8.40;;
57327;SDS011;43162;51.040;18.244;2022-12-26T04:24:38;20.20;;;9.50;;
57327;SDS011;43162;51.040;18.244;2022-12-26T04:27:27;15.70;;;8.80;;
57327;SDS011;43162;51.040;18.244;2022-12-26T04:30:13;15.80;;;10.10;;
57327;SDS011;43162;51.040;18.244;2022-12-26T04:32:59;15.50;;;8.70;;
57327;SDS011;43162;51.040;18.244;2022-12-26T04:35:55;14.60;;;8.70;;
57327;SDS011;43162;51.040;18.244;2022-12-26T04:38:48;16.00;;;8.00;;
57327;SDS011;43162;51.040;18.244;2022-12-26T04:41:36;15.70;;;9.70;;
57327;SDS011;43162;51.040;18.244;2022-12-26T04:44:21;15.40;;;8.70;;
57327;SDS011;43162;51.040;18.244;2022-12-26T04:46:48;16.90;;;9.70;;
57327;SDS011;43162;51.040;18.244;2022-12-26T04:49:16;16.90;;;10.00;;
57327;SDS011;43162;51.040;18.244;2022-12-26T04:52:02;23.60;;;10.60;;
57327;SDS011;43162;51.040;18.244;2022-12-26T04:54:30;17.10;;;8.30;;
57327;SDS011;43162;51.040;18.244;2022-12-26T04:56:56;17.10;;;9.60;;
57327;SDS011;43162;51.040;18.244;2022-12-26T04:59:22;15.30;;;8.90;;
57327;SDS011;43162;51.040;18.244;2022-12-26T05:01:48;16.60;;;8.50;;
57327;SDS011;43162;51.040;18.244;2022-12-26T05:04:32;18.00;;;9.50;;
57327;SDS011;43162;51.040;18.244;2022-12-26T05:07:21;21.40;;;9.30;;
57327;SDS011;43162;51.040;18.244;2022-12-26T05:10:08;15.70;;;9.70;;
57327;SDS011;43162;51.040;18.244;2022-12-26T05:12:37;14.30;;;8.50;;
57327;SDS011;43162;51.040;18.244;2022-12-26T05:15:03;16.80;;;8.90;;
57327;SDS011;43162;51.040;18.244;2022-12-26T05:17:29;14.60;;;8.90;;
57327;SDS011;43162;51.040;18.244;2022-12-26T05:20:13;19.00;;;9.00;;
57327;SDS011;43162;51.040;18.244;2022-12-26T05:22:58;18.90;;;9.50;;
57327;SDS011;43162;51.040;18.244;2022-12-26T05:25:44;14.70;;;8.80;;
57327;SDS011;43162;51.040;18.244;2022-12-26T05:28:28;18.80;;;8.70;;
57327;SDS011;43162;51.040;18.244;2022-12-26T05:31:07;12.30;;;7.70;;
57327;SDS011;43162;51.040;18.244;2022-12-26T05:33:40;14.60;;;9.30;;
57327;SDS011;43162;51.040;18.244;2022-12-26T05:36:25;15.40;;;9.30;;
57327;SDS011;43162;51.040;18.244;2022-12-26T05:38:54;18.40;;;10.50;;
57327;SDS011;43162;51.040;18.244;2022-12-26T05:41:20;17.80;;;10.20;;
57327;SDS011;43162;51.040;18.244;2022-12-26T05:43:47;16.30;;;9.40;;
57327;SDS011;43162;51.040;18.244;2022-12-26T05:46:12;18.60;;;9.00;;
57327;SDS011;43162;51.040;18.244;2022-12-26T05:48:38;16.10;;;10.00;;
57327;SDS011;43162;51.040;18.244;2022-12-26T05:51:04;16.20;;;9.40;;
57327;SDS011;43162;51.040;18.244;2022-12-26T05:53:31;18.40;;;9.90;;
57327;SDS011;43162;51.040;18.244;2022-12-26T05:56:05;16.30;;;9.50;;
57327;SDS011;43162;51.040;18.244;2022-12-26T05:58:33;24.70;;;10.90;;
57327;SDS011;43162;51.040;18.244;2022-12-26T06:01:03;18.50;;;10.70;;
57327;SDS011;43162;51.040;18.244;2022-12-26T06:03:30;15.10;;;9.40;;
57327;SDS011;43162;51.040;18.244;2022-12-26T06:05:56;15.20;;;10.10;;
57327;SDS011;43162;51.040;18.244;2022-12-26T06:08:21;15.80;;;10.50;;
57327;SDS011;43162;51.040;18.244;2022-12-26T06:10:47;20.90;;;12.10;;
57327;SDS011;43162;51.040;18.244;2022-12-26T06:13:13;27.90;;;13.00;;
57327;SDS011;43162;51.040;18.244;2022-12-26T06:15:38;17.60;;;11.20;;
57327;SDS011;43162;51.040;18.244;2022-12-26T06:18:04;22.10;;;13.90;;
57327;SDS011;43162;51.040;18.244;2022-12-26T06:20:29;18.60;;;11.40;;
57327;SDS011;43162;51.040;18.244;2022-12-26T06:22:55;20.70;;;12.10;;
57327;SDS011;43162;51.040;18.244;2022-12-26T06:25:22;24.20;;;11.80;;
57327;SDS011;43162;51.040;18.244;2022-12-26T06:27:48;24.10;;;12.90;;
57327;SDS011;43162;51.040;18.244;2022-12-26T06:30:14;27.50;;;12.80;;
57327;SDS011;43162;51.040;18.244;2022-12-26T06:32:39;23.90;;;13.60;;
57327;SDS011;43162;51.040;18.244;2022-12-26T06:35:05;25.70;;;13.50;;
57327;SDS011;43162;51.040;18.244;2022-12-26T06:37:31;23.50;;;12.70;;
57327;SDS011;43162;51.040;18.244;2022-12-26T06:39:57;23.20;;;12.40;;
57327;SDS011;43162;51.040;18.244;2022-12-26T06:42:23;63.80;;;20.20;;
57327;SDS011;43162;51.040;18.244;2022-12-26T06:44:49;133.30;;;34.30;;
57327;SDS011;43162;51.040;18.244;2022-12-26T06:47:14;121.20;;;33.10;;
57327;SDS011;43162;51.040;18.244;2022-12-26T06:49:40;129.50;;;37.90;;
57327;SDS011;43162;51.040;18.244;2022-12-26T06:52:06;169.70;;;47.50;;
57327;SDS011;43162;51.040;18.244;2022-12-26T06:54:32;141.00;;;43.70;;
57327;SDS011;43162;51.040;18.244;2022-12-26T06:57:00;172.30;;;57.50;;
57327;SDS011;43162;51.040;18.244;2022-12-26T06:59:25;133.60;;;50.20;;
57327;SDS011;43162;51.040;18.244;2022-12-26T07:01:51;117.80;;;43.00;;
57327;SDS011;43162;51.040;18.244;2022-12-26T07:04:16;85.70;;;40.40;;
57327;SDS011;43162;51.040;18.244;2022-12-26T07:06:42;42.60;;;22.50;;
57327;SDS011;43162;51.040;18.244;2022-12-26T07:09:09;48.60;;;25.50;;
57327;SDS011;43162;51.040;18.244;2022-12-26T07:11:39;43.60;;;21.70;;
57327;SDS011;43162;51.040;18.244;2022-12-26T07:14:06;35.60;;;19.60;;
57327;SDS011;43162;51.040;18.244;2022-12-26T07:16:33;37.70;;;20.60;;
57327;SDS011;43162;51.040;18.244;2022-12-26T07:18:59;34.70;;;19.70;;
57327;SDS011;43162;51.040;18.244;2022-12-26T07:21:25;35.80;;;17.10;;
57327;SDS011;43162;51.040;18.244;2022-12-26T07:23:51;26.20;;;15.80;;
57327;SDS011;43162;51.040;18.244;2022-12-26T07:26:17;33.20;;;17.90;;
57327;SDS011;43162;51.040;18.244;2022-12-26T07:28:43;31.40;;;16.40;;
57327;SDS011;43162;51.040;18.244;2022-12-26T07:31:14;26.10;;;15.40;;
57327;SDS011;43162;51.040;18.244;2022-12-26T07:33:41;30.00;;;15.90;;
57327;SDS011;43162;51.040;18.244;2022-12-26T07:36:07;36.80;;;18.60;;
57327;SDS011;43162;51.040;18.244;2022-12-26T07:38:32;24.70;;;12.70;;
57327;SDS011;43162;51.040;18.244;2022-12-26T07:40:58;28.20;;;13.80;;
57327;SDS011;43162;51.040;18.244;2022-12-26T07:43:44;22.70;;;13.40;;
57327;SDS011;43162;51.040;18.244;2022-12-26T07:46:10;20.20;;;11.80;;
57327;SDS011;43162;51.040;18.244;2022-12-26T07:48:35;20.90;;;12.80;;
57327;SDS011;43162;51.040;18.244;2022-12-26T07:51:01;34.40;;;19.10;;
57327;SDS011;43162;51.040;18.244;2022-12-26T07:53:27;33.60;;;16.80;;
57327;SDS011;43162;51.040;18.244;2022-12-26T07:55:57;25.60;;;13.60;;
57327;SDS011;43162;51.040;18.244;2022-12-26T07:58:23;22.80;;;13.20;;
57327;SDS011;43162;51.040;18.244;2022-12-26T08:00:49;29.20;;;14.60;;
57327;SDS011;43162;51.040;18.244;2022-12-26T08:03:15;60.20;;;30.90;;
57327;SDS011;43162;51.040;18.244;2022-12-26T08:05:43;63.70;;;33.70;;
57327;SDS011;43162;51.040;18.244;2022-12-26T08:08:10;57.10;;;28.30;;
57327;SDS011;43162;51.040;18.244;2022-12-26T08:10:35;32.60;;;16.10;;
57327;SDS011;43162;51.040;18.244;2022-12-26T08:13:01;25.20;;;13.60;;
57327;SDS011;43162;51.040;18.244;2022-12-26T08:15:26;38.90;;;19.40;;
57327;SDS011;43162;51.040;18.244;2022-12-26T08:17:52;30.00;;;14.50;;
57327;SDS011;43162;51.040;18.244;2022-12-26T08:20:18;26.90;;;12.10;;
57327;SDS011;43162;51.040;18.244;2022-12-26T08:22:44;16.30;;;11.10;;
57327;SDS011;43162;51.040;18.244;2022-12-26T08:25:09;23.70;;;12.50;;
57327;SDS011;43162;51.040;18.244;2022-12-26T08:27:35;29.00;;;17.20;;
57327;SDS011;43162;51.040;18.244;2022-12-26T08:30:01;19.10;;;10.70;;
57327;SDS011;43162;51.040;18.244;2022-12-26T08:32:26;27.80;;;16.50;;
57327;SDS011;43162;51.040;18.244;2022-12-26T08:34:52;23.60;;;13.30;;
57327;SDS011;43162;51.040;18.244;2022-12-26T08:37:18;19.80;;;11.80;;
57327;SDS011;43162;51.040;18.244;2022-12-26T08:39:43;28.70;;;13.80;;
57327;SDS011;43162;51.040;18.244;2022-12-26T08:42:09;18.00;;;10.20;;
57327;SDS011;43162;51.040;18.244;2022-12-26T08:44:34;19.90;;;11.00;;
57327;SDS011;43162;51.040;18.244;2022-12-26T08:47:00;21.40;;;10.90;;
57327;SDS011;43162;51.040;18.244;2022-12-26T08:49:26;18.40;;;9.80;;
57327;SDS011;43162;51.040;18.244;2022-12-26T08:51:51;17.90;;;12.70;;
57327;SDS011;43162;51.040;18.244;2022-12-26T08:54:17;21.30;;;11.40;;
57327;SDS011;43162;51.040;18.244;2022-12-26T08:56:42;21.80;;;11.10;;
57327;SDS011;43162;51.040;18.244;2022-12-26T08:59:08;27.80;;;14.10;;
57327;SDS011;43162;51.040;18.244;2022-12-26T09:01:33;33.60;;;17.00;;
57327;SDS011;43162;51.040;18.244;2022-12-26T09:04:00;26.10;;;15.60;;
57327;SDS011;43162;51.040;18.244;2022-12-26T09:06:27;27.40;;;17.30;;
57327;SDS011;43162;51.040;18.244;2022-12-26T09:08:53;32.00;;;15.70;;
57327;SDS011;43162;51.040;18.244;2022-12-26T09:11:20;32.70;;;13.90;;
57327;SDS011;43162;51.040;18.244;2022-12-26T09:13:47;24.10;;;11.30;;
57327;SDS011;43162;51.040;18.244;2022-12-26T09:18:39;20.20;;;11.60;;
57327;SDS011;43162;51.040;18.244;2022-12-26T09:21:06;23.70;;;11.00;;
57327;SDS011;43162;51.040;18.244;2022-12-26T09:23:34;17.90;;;10.10;;
57327;SDS011;43162;51.040;18.244;2022-12-26T09:26:18;21.00;;;11.60;;
57327;SDS011;43162;51.040;18.244;2022-12-26T09:28:45;17.10;;;9.80;;
57327;SDS011;43162;51.040;18.244;2022-12-26T09:31:15;15.00;;;8.40;;
57327;SDS011;43162;51.040;18.244;2022-12-26T09:33:43;17.00;;;8.90;;
57327;SDS011;43162;51.040;18.244;2022-12-26T09:36:19;14.20;;;8.20;;
57327;SDS011;43162;51.040;18.244;2022-12-26T09:38:47;17.50;;;7.50;;
57327;SDS011;43162;51.040;18.244;2022-12-26T09:41:24;13.20;;;8.10;;
57327;SDS011;43162;51.040;18.244;2022-12-26T09:46:43;12.00;;;6.70;;
57327;SDS011;43162;51.040;18.244;2022-12-26T09:49:19;10.90;;;6.80;;
57327;SDS011;43162;51.040;18.244;2022-12-26T09:51:47;10.90;;;7.00;;
57327;SDS011;43162;51.040;18.244;2022-12-26T09:54:18;12.70;;;8.20;;
57327;SDS011;43162;51.040;18.244;2022-12-26T09:57:13;11.70;;;7.30;;
57327;SDS011;43162;51.040;18.244;2022-12-26T09:59:51;12.90;;;7.80;;
57327;SDS011;43162;51.040;18.244;2022-12-26T10:04:48;19.80;;;9.90;;
57327;SDS011;43162;51.040;18.244;2022-12-26T10:15:41;17.60;;;9.80;;
57327;SDS011;43162;51.040;18.244;2022-12-26T10:23:31;17.20;;;10.00;;
57327;SDS011;43162;51.040;18.244;2022-12-26T10:31:05;14.80;;;9.00;;
57327;SDS011;43162;51.040;18.244;2022-12-26T10:33:40;13.70;;;7.10;;
57327;SDS011;43162;51.040;18.244;2022-12-26T10:36:13;15.20;;;8.10;;
57327;SDS011;43162;51.040;18.244;2022-12-26T10:38:51;15.10;;;8.90;;
57327;SDS011;43162;51.040;18.244;2022-12-26T10:41:26;19.40;;;10.40;;
57327;SDS011;43162;51.040;18.244;2022-12-26T10:43:55;19.20;;;10.50;;
57327;SDS011;43162;51.040;18.244;2022-12-26T10:48:54;29.40;;;10.30;;
57327;SDS011;43162;51.040;18.244;2022-12-26T10:51:20;20.70;;;10.20;;
57327;SDS011;43162;51.040;18.244;2022-12-26T10:53:48;19.50;;;10.80;;
57327;SDS011;43162;51.040;18.244;2022-12-26T10:56:16;18.90;;;10.30;;
57327;SDS011;43162;51.040;18.244;2022-12-26T10:58:43;28.60;;;13.10;;
57327;SDS011;43162;51.040;18.244;2022-12-26T11:01:29;21.10;;;11.50;;
57327;SDS011;43162;51.040;18.244;2022-12-26T11:04:04;24.80;;;13.80;;
57327;SDS011;43162;51.040;18.244;2022-12-26T11:06:39;19.30;;;10.90;;
57327;SDS011;43162;51.040;18.244;2022-12-26T11:09:19;26.50;;;14.70;;
57327;SDS011;43162;51.040;18.244;2022-12-26T11:11:49;26.70;;;15.90;;
57327;SDS011;43162;51.040;18.244;2022-12-26T11:14:36;17.60;;;10.40;;
57327;SDS011;43162;51.040;18.244;2022-12-26T11:17:08;22.90;;;13.10;;
57327;SDS011;43162;51.040;18.244;2022-12-26T11:22:40;25.20;;;12.90;;
57327;SDS011;43162;51.040;18.244;2022-12-26T11:25:15;20.30;;;11.20;;
57327;SDS011;43162;51.040;18.244;2022-12-26T11:27:49;15.00;;;9.30;;
57327;SDS011;43162;51.040;18.244;2022-12-26T11:30:21;27.10;;;11.60;;
57327;SDS011;43162;51.040;18.244;2022-12-26T11:32:49;20.20;;;10.70;;
57327;SDS011;43162;51.040;18.244;2022-12-26T11:35:26;28.10;;;13.00;;
57327;SDS011;43162;51.040;18.244;2022-12-26T11:37:59;24.70;;;13.00;;
57327;SDS011;43162;51.040;18.244;2022-12-26T11:43:13;20.20;;;11.50;;
57327;SDS011;43162;51.040;18.244;2022-12-26T11:45:41;24.40;;;11.70;;
57327;SDS011;43162;51.040;18.244;2022-12-26T11:48:29;22.80;;;10.80;;
57327;SDS011;43162;51.040;18.244;2022-12-26T11:50:53;19.60;;;10.60;;
57327;SDS011;43162;51.040;18.244;2022-12-26T11:53:21;18.20;;;9.70;;
57327;SDS011;43162;51.040;18.244;2022-12-26T11:58:36;19.70;;;10.80;;
57327;SDS011;43162;51.040;18.244;2022-12-26T12:01:04;23.20;;;12.60;;
57327;SDS011;43162;51.040;18.244;2022-12-26T12:08:57;19.90;;;10.80;;
57327;SDS011;43162;51.040;18.244;2022-12-26T12:17:00;20.60;;;11.60;;
57327;SDS011;43162;51.040;18.244;2022-12-26T12:19:50;25.70;;;14.00;;
57327;SDS011;43162;51.040;18.244;2022-12-26T12:22:32;19.30;;;11.40;;
57327;SDS011;43162;51.040;18.244;2022-12-26T12:28:13;14.10;;;8.20;;
57327;SDS011;43162;51.040;18.244;2022-12-26T12:36:05;33.90;;;13.20;;
57327;SDS011;43162;51.040;18.244;2022-12-26T12:46:53;24.10;;;12.00;;
57327;SDS011;43162;51.040;18.244;2022-12-26T12:52:39;19.20;;;8.80;;
57327;SDS011;43162;51.040;18.244;2022-12-26T12:55:34;19.50;;;8.80;;
57327;SDS011;43162;51.040;18.244;2022-12-26T13:01:12;19.30;;;9.00;;
57327;SDS011;43162;51.040;18.244;2022-12-26T13:06:29;16.70;;;9.30;;
57327;SDS011;43162;51.040;18.244;2022-12-26T13:11:43;18.10;;;8.30;;
57327;SDS011;43162;51.040;18.244;2022-12-26T13:14:24;18.00;;;9.60;;
57327;SDS011;43162;51.040;18.244;2022-12-26T13:16:54;15.70;;;8.30;;
57327;SDS011;43162;51.040;18.244;2022-12-26T13:19:23;14.80;;;8.10;;
57327;SDS011;43162;51.040;18.244;2022-12-26T13:21:51;15.80;;;9.20;;
57327;SDS011;43162;51.040;18.244;2022-12-26T13:27:34;14.20;;;8.30;;
57327;SDS011;43162;51.040;18.244;2022-12-26T13:30:01;17.40;;;9.60;;
57327;SDS011;43162;51.040;18.244;2022-12-26T13:32:29;13.90;;;9.30;;
57327;SDS011;43162;51.040;18.244;2022-12-26T13:34:59;17.50;;;9.20;;
57327;SDS011;43162;51.040;18.244;2022-12-26T13:40:22;28.80;;;12.00;;
57327;SDS011;43162;51.040;18.244;2022-12-26T13:42:52;18.50;;;8.80;;
57327;SDS011;43162;51.040;18.244;2022-12-26T13:55:51;21.40;;;8.80;;
57327;SDS011;43162;51.040;18.244;2022-12-26T14:01:00;15.00;;;7.60;;
57327;SDS011;43162;51.040;18.244;2022-12-26T14:06:13;30.90;;;13.30;;
57327;SDS011;43162;51.040;18.244;2022-12-26T14:17:14;31.10;;;12.40;;
57327;SDS011;43162;51.040;18.244;2022-12-26T14:20:05;32.50;;;12.40;;
57327;SDS011;43162;51.040;18.244;2022-12-26T14:22:45;27.00;;;11.50;;
57327;SDS011;43162;51.040;18.244;2022-12-26T14:28:11;21.70;;;11.30;;
57327;SDS011;43162;51.040;18.244;2022-12-26T14:33:32;18.90;;;9.50;;
57327;SDS011;43162;51.040;18.244;2022-12-26T14:39:35;21.00;;;10.20;;
57327;SDS011;43162;51.040;18.244;2022-12-26T14:44:51;17.30;;;8.60;;
57327;SDS011;43162;51.040;18.244;2022-12-26T14:58:41;8.50;;;4.90;;
57327;SDS011;43162;51.040;18.244;2022-12-26T15:03:58;11.40;;;4.80;;
57327;SDS011;43162;51.040;18.244;2022-12-26T15:09:10;9.60;;;4.90;;
57327;SDS011;43162;51.040;18.244;2022-12-26T15:14:53;6.50;;;4.10;;
57327;SDS011;43162;51.040;18.244;2022-12-26T15:20:42;11.10;;;4.40;;
57327;SDS011;43162;51.040;18.244;2022-12-26T15:42:28;10.50;;;5.40;;
57327;SDS011;43162;51.040;18.244;2022-12-26T16:01:02;31.20;;;16.50;;
57327;SDS011;43162;51.040;18.244;2022-12-26T16:03:34;30.30;;;15.70;;
57327;SDS011;43162;51.040;18.244;2022-12-26T16:14:28;29.30;;;14.60;;
57327;SDS011;43162;51.040;18.244;2022-12-26T16:17:17;28.50;;;15.00;;
57327;SDS011;43162;51.040;18.244;2022-12-26T16:19:43;26.40;;;12.80;;
57327;SDS011;43162;51.040;18.244;2022-12-26T16:22:15;19.90;;;11.40;;
57327;SDS011;43162;51.040;18.244;2022-12-26T16:25:07;19.90;;;10.40;;
57327;SDS011;43162;51.040;18.244;2022-12-26T16:27:35;13.90;;;7.50;;
57327;SDS011;43162;51.040;18.244;2022-12-26T16:30:05;17.70;;;9.20;;
57327;SDS011;43162;51.040;18.244;2022-12-26T16:32:37;16.60;;;8.40;;
57327;SDS011;43162;51.040;18.244;2022-12-26T16:35:05;13.70;;;7.50;;
57327;SDS011;43162;51.040;18.244;2022-12-26T16:37:39;27.20;;;10.90;;
57327;SDS011;43162;51.040;18.244;2022-12-26T16:42:36;20.60;;;10.50;;
57327;SDS011;43162;51.040;18.244;2022-12-26T16:45:02;25.30;;;11.20;;
57327;SDS011;43162;51.040;18.244;2022-12-26T16:47:29;17.40;;;9.40;;
57327;SDS011;43162;51.040;18.244;2022-12-26T16:49:58;15.30;;;9.20;;
57327;SDS011;43162;51.040;18.244;2022-12-26T16:52:32;17.90;;;9.70;;
57327;SDS011;43162;51.040;18.244;2022-12-26T16:57:50;21.00;;;11.50;;
57327;SDS011;43162;51.040;18.244;2022-12-26T17:00:21;20.20;;;11.90;;
57327;SDS011;43162;51.040;18.244;2022-12-26T17:02:48;21.20;;;11.60;;
57327;SDS011;43162;51.040;18.244;2022-12-26T17:05:19;26.30;;;12.20;;
57327;SDS011;43162;51.040;18.244;2022-12-26T17:07:55;27.80;;;12.90;;
57327;SDS011;43162;51.040;18.244;2022-12-26T17:10:28;21.80;;;10.40;;
57327;SDS011;43162;51.040;18.244;2022-12-26T17:13:01;20.10;;;10.40;;
57327;SDS011;43162;51.040;18.244;2022-12-26T17:15:31;18.70;;;9.80;;
57327;SDS011;43162;51.040;18.244;2022-12-26T17:17:59;18.90;;;10.40;;
57327;SDS011;43162;51.040;18.244;2022-12-26T17:20:27;17.20;;;9.50;;
57327;SDS011;43162;51.040;18.244;2022-12-26T17:22:59;16.60;;;8.70;;
57327;SDS011;43162;51.040;18.244;2022-12-26T17:28:54;12.50;;;5.90;;
57327;SDS011;43162;51.040;18.244;2022-12-26T17:31:23;12.30;;;5.30;;
57327;SDS011;43162;51.040;18.244;2022-12-26T17:33:54;8.70;;;5.00;;
57327;SDS011;43162;51.040;18.244;2022-12-26T17:36:21;7.50;;;3.80;;
57327;SDS011;43162;51.040;18.244;2022-12-26T17:41:18;2.50;;;2.00;;
57327;SDS011;43162;51.040;18.244;2022-12-26T17:43:44;5.10;;;2.40;;
57327;SDS011;43162;51.040;18.244;2022-12-26T17:46:12;4.00;;;2.80;;
57327;SDS011;43162;51.040;18.244;2022-12-26T17:48:40;7.80;;;2.00;;
57327;SDS011;43162;51.040;18.244;2022-12-26T17:51:09;7.00;;;2.40;;
57327;SDS011;43162;51.040;18.244;2022-12-26T17:53:38;3.40;;;2.20;;
57327;SDS011;43162;51.040;18.244;2022-12-26T17:56:26;3.20;;;2.00;;
57327;SDS011;43162;51.040;18.244;2022-12-26T17:58:51;5.30;;;3.10;;
57327;SDS011;43162;51.040;18.244;2022-12-26T18:01:18;3.90;;;2.20;;
57327;SDS011;43162;51.040;18.244;2022-12-26T18:03:45;6.70;;;2.60;;
57327;SDS011;43162;51.040;18.244;2022-12-26T18:06:13;4.40;;;2.50;;
57327;SDS011;43162;51.040;18.244;2022-12-26T18:08:40;4.20;;;1.90;;
57327;SDS011;43162;51.040;18.244;2022-12-26T18:11:08;5.90;;;2.60;;
57327;SDS011;43162;51.040;18.244;2022-12-26T18:13:35;5.40;;;2.70;;
57327;SDS011;43162;51.040;18.244;2022-12-26T18:16:04;3.60;;;2.20;;
57327;SDS011;43162;51.040;18.244;2022-12-26T18:18:34;3.70;;;2.50;;
57327;SDS011;43162;51.040;18.244;2022-12-26T18:21:03;3.50;;;2.30;;
57327;SDS011;43162;51.040;18.244;2022-12-26T18:23:32;4.30;;;2.50;;
57327;SDS011;43162;51.040;18.244;2022-12-26T18:25:58;5.60;;;1.70;;
57327;SDS011;43162;51.040;18.244;2022-12-26T18:28:27;7.80;;;2.80;;
57327;SDS011;43162;51.040;18.244;2022-12-26T18:30:53;4.60;;;2.30;;
57327;SDS011;43162;51.040;18.244;2022-12-26T18:33:21;6.50;;;3.10;;
57327;SDS011;43162;51.040;18.244;2022-12-26T18:35:46;3.90;;;2.80;;
57327;SDS011;43162;51.040;18.244;2022-12-26T18:38:13;4.50;;;1.90;;
57327;SDS011;43162;51.040;18.244;2022-12-26T18:40:41;2.70;;;2.00;;
57327;SDS011;43162;51.040;18.244;2022-12-26T18:43:08;3.50;;;2.70;;